WXM80 ListenWXM80 Stop

You find our weather info also at:

UK Metoffice

WeatherCloud

Weather Underground

Northeastern Weather Network

AWEKAS

Citizen Weather Observer Program (CWOP)

HAMweather, WeatherForYou, PWS Weather


Weather Underground History page Text

Daily Summary for January 4, 2018 Units:  Both    English   Metric
« Previous Day
Next Day »
Daily Weekly Monthly Yearly Custom
  High: Low: Average:
Temperature: TemperatureF °F /  -17.8 °C 19.8 °F /  -6.8 °C 25.5 °F /  -3.6 °C
Dew Point: DewpointF °F /  -17.8 °C 17.9 °F /  -7.8 °C 23.3 °F /  -4.8 °C
Humidity: Humidity % 70 % 91 %
Wind Speed: WindSpeedMPH mph /  0 km/h - 10.8 mph /  17.4 km/h
Wind Gust: WindSpeedGustMPH mph /  0 km/h - -
Wind:- - South
Pressure: PressureIn in /  0 hPa 28.93 in /  979.6 hPa -
Precipitation: 0.54 in /  13.72 mm    
Historical Graphs
 
 
Tabular Data for January 4, 2018
Time Temperature Dew Point Pressure Wind Wind Speed Wind Gust Humidity Rainfall Rate (Hourly)
TemperatureF °F /  -17.8 °C DewpointF °F /  -17.8 °C PressureIn in /  0 hPa Calm     Humidity % HourlyPrecipIn in /  0 mm
00:00 28.5 °F /  -1.9 °C 23.7 °F /  -4.6 °C 30.01 in /  1016.1 hPa NE 2.3 mph /  3.7 km/h 4.6 mph /  7.4 km/h 82 % 0.00 in /  0 mm
00:05 28.7 °F /  -1.8 °C 23.6 °F /  -4.7 °C 30.01 in /  1016.1 hPa NNE 2.6 mph /  4.2 km/h 5.0 mph /  8 km/h 81 % 0.00 in /  0 mm
00:06 28.7 °F /  -1.8 °C 23.6 °F /  -4.7 °C 30.01 in /  1016.1 hPa ENE 3.6 mph /  5.8 km/h 4.6 mph /  7.4 km/h 81 % 0.00 in /  0 mm
00:12 29.1 °F /  -1.6 °C 24.0 °F /  -4.4 °C 30.00 in /  1015.8 hPa NNE 3.2 mph /  5.1 km/h 8.1 mph /  13 km/h 81 % 0.00 in /  0 mm
00:17 29.2 °F /  -1.6 °C 23.8 °F /  -4.6 °C 30.00 in /  1015.8 hPa NNE 2.6 mph /  4.2 km/h 6.0 mph /  9.7 km/h 80 % 0.00 in /  0 mm
00:19 29.3 °F /  -1.5 °C 23.9 °F /  -4.5 °C 30.00 in /  1015.8 hPa NNE 3.7 mph /  6 km/h 8.1 mph /  13 km/h 80 % 0.00 in /  0 mm
00:24 29.4 °F /  -1.4 °C 24.0 °F /  -4.4 °C 29.99 in /  1015.5 hPa NE 4.2 mph /  6.8 km/h 8.0 mph /  12.9 km/h 80 % 0.00 in /  0 mm
00:29 29.6 °F /  -1.3 °C 23.9 °F /  -4.5 °C 29.98 in /  1015.1 hPa NE 3.3 mph /  5.3 km/h 9.2 mph /  14.8 km/h 79 % 0.00 in /  0 mm
00:35 29.7 °F /  -1.3 °C 24.0 °F /  -4.4 °C 29.73 in /  1006.7 hPa NNE 4.0 mph /  6.4 km/h 6.9 mph /  11.1 km/h 79 % 0.00 in /  0 mm
00:37 29.7 °F /  -1.3 °C 24.0 °F /  -4.4 °C 29.97 in /  1014.8 hPa NNE 3.1 mph /  5 km/h 6.9 mph /  11.1 km/h 79 % 0.00 in /  0 mm
00:41 29.8 °F /  -1.2 °C 24.1 °F /  -4.4 °C 29.97 in /  1014.8 hPa NE 4.0 mph /  6.4 km/h 5.8 mph /  9.3 km/h 79 % 0.00 in /  0 mm
00:42 29.8 °F /  -1.2 °C 24.1 °F /  -4.4 °C 29.97 in /  1014.8 hPa NNE 6.2 mph /  10 km/h 10.4 mph /  16.7 km/h 79 % 0.00 in /  0 mm
00:47 29.8 °F /  -1.2 °C 24.1 °F /  -4.4 °C 29.96 in /  1014.4 hPa NNE 3.8 mph /  6.1 km/h 8.1 mph /  13 km/h 79 % 0.00 in /  0 mm
00:53 29.9 °F /  -1.2 °C 23.9 °F /  -4.5 °C 29.96 in /  1014.4 hPa ENE 5.3 mph /  8.5 km/h 8.1 mph /  13 km/h 78 % 0.00 in /  0 mm
00:56 29.9 °F /  -1.2 °C 23.9 °F /  -4.5 °C 29.95 in /  1014.1 hPa NE 5.0 mph /  8 km/h 9.0 mph /  14.5 km/h 78 % 0.00 in /  0 mm
00:58 29.9 °F /  -1.2 °C 23.9 °F /  -4.5 °C 29.95 in /  1014.1 hPa NNE 4.9 mph /  7.9 km/h 9.2 mph /  14.8 km/h 78 % 0.00 in /  0 mm
01:01 29.9 °F /  -1.2 °C 23.9 °F /  -4.5 °C 29.95 in /  1014.1 hPa NE 6.4 mph /  10.3 km/h 8.1 mph /  13 km/h 78 % 0.00 in /  0 mm
01:04 29.9 °F /  -1.2 °C 23.9 °F /  -4.5 °C 29.95 in /  1014.1 hPa North 5.1 mph /  8.2 km/h 8.1 mph /  13 km/h 78 % 0.00 in /  0 mm
01:07 29.8 °F /  -1.2 °C 23.5 °F /  -4.7 °C 29.95 in /  1014.1 hPa NNE 6.2 mph /  10 km/h 9.2 mph /  14.8 km/h 77 % 0.00 in /  0 mm
01:12 29.8 °F /  -1.2 °C 23.5 °F /  -4.7 °C 29.94 in /  1013.8 hPa NNE 5.8 mph /  9.3 km/h 12.0 mph /  19.3 km/h 77 % 0.00 in /  0 mm
01:18 29.7 °F /  -1.3 °C 23.4 °F /  -4.8 °C 29.94 in /  1013.8 hPa NNE 6.7 mph /  10.8 km/h 12.7 mph /  20.4 km/h 77 % 0.00 in /  0 mm
01:19 29.7 °F /  -1.3 °C 23.4 °F /  -4.8 °C 29.94 in /  1013.8 hPa NE 5.7 mph /  9.2 km/h 12.0 mph /  19.3 km/h 77 % 0.00 in /  0 mm
01:24 29.7 °F /  -1.3 °C 23.4 °F /  -4.8 °C 29.93 in /  1013.4 hPa NNE 5.8 mph /  9.3 km/h 11.5 mph /  18.5 km/h 77 % 0.00 in /  0 mm
01:26 29.7 °F /  -1.3 °C 23.4 °F /  -4.8 °C 29.93 in /  1013.4 hPa North 4.2 mph /  6.8 km/h 8.1 mph /  13 km/h 77 % 0.00 in /  0 mm
01:28 29.8 °F /  -1.2 °C 23.5 °F /  -4.7 °C 29.68 in /  1005 hPa NNE 5.5 mph /  8.9 km/h 8.1 mph /  13 km/h 77 % 0.00 in /  0 mm
01:32 29.8 °F /  -1.2 °C 23.5 °F /  -4.7 °C 29.92 in /  1013.1 hPa NE 5.0 mph /  8 km/h 5.0 mph /  8 km/h 77 % 0.00 in /  0 mm
01:34 29.7 °F /  -1.3 °C 23.4 °F /  -4.8 °C 29.92 in /  1013.1 hPa NE 5.0 mph /  8 km/h 5.0 mph /  8 km/h 77 % 0.00 in /  0 mm
01:39 29.7 °F /  -1.3 °C 23.4 °F /  -4.8 °C 29.92 in /  1013.1 hPa NNE 10.4 mph /  16.7 km/h 12.7 mph /  20.4 km/h 77 % 0.00 in /  0 mm
01:44 29.6 °F /  -1.3 °C 23.0 °F /  -5 °C 29.92 in /  1013.1 hPa NNE 9.2 mph /  14.8 km/h 11.5 mph /  18.5 km/h 76 % 0.00 in /  0 mm
01:45 29.6 °F /  -1.3 °C 23.0 °F /  -5 °C 29.92 in /  1013.1 hPa NE 7.9 mph /  12.7 km/h 11.5 mph /  18.5 km/h 76 % 0.00 in /  0 mm
01:46 29.6 °F /  -1.3 °C 23.0 °F /  -5 °C 29.67 in /  1004.6 hPa NNE 8.0 mph /  12.9 km/h 12.0 mph /  19.3 km/h 76 % 0.00 in /  0 mm
01:47 29.6 °F /  -1.3 °C 23.0 °F /  -5 °C 29.67 in /  1004.6 hPa NNE 9.4 mph /  15.1 km/h 13.8 mph /  22.2 km/h 76 % 0.00 in /  0 mm
01:48 29.6 °F /  -1.3 °C 23.0 °F /  -5 °C 29.92 in /  1013.1 hPa NNE 7.8 mph /  12.6 km/h 11.5 mph /  18.5 km/h 76 % 0.00 in /  0 mm
01:53 29.5 °F /  -1.4 °C 22.6 °F /  -5.2 °C 29.91 in /  1012.8 hPa ENE 8.9 mph /  14.3 km/h 15.0 mph /  24.1 km/h 75 % 0.00 in /  0 mm
01:54 29.6 °F /  -1.3 °C 22.6 °F /  -5.2 °C 29.91 in /  1012.8 hPa North 9.2 mph /  14.8 km/h 15.0 mph /  24.1 km/h 75 % 0.00 in /  0 mm
01:59 29.5 °F /  -1.4 °C 22.2 °F /  -5.4 °C 29.91 in /  1012.8 hPa NNE 6.7 mph /  10.8 km/h 11.5 mph /  18.5 km/h 74 % 0.00 in /  0 mm
02:00 29.5 °F /  -1.4 °C 22.2 °F /  -5.4 °C 29.91 in /  1012.8 hPa NNE 6.7 mph /  10.8 km/h 11.5 mph /  18.5 km/h 74 % 0.00 in /  0 mm
02:05 29.5 °F /  -1.4 °C 21.9 °F /  -5.6 °C 29.90 in /  1012.4 hPa North 8.2 mph /  13.2 km/h 13.8 mph /  22.2 km/h 73 % 0.00 in /  0 mm
02:06 29.5 °F /  -1.4 °C 21.9 °F /  -5.6 °C 29.90 in /  1012.4 hPa NE 7.8 mph /  12.6 km/h 13.8 mph /  22.2 km/h 73 % 0.00 in /  0 mm
02:11 29.5 °F /  -1.4 °C 21.9 °F /  -5.6 °C 29.89 in /  1012.1 hPa NE 6.3 mph /  10.1 km/h 9.0 mph /  14.5 km/h 73 % 0.00 in /  0 mm
02:14 29.5 °F /  -1.4 °C 21.9 °F /  -5.6 °C 29.64 in /  1003.6 hPa North 6.8 mph /  10.9 km/h 11.5 mph /  18.5 km/h 73 % 0.00 in /  0 mm
02:15 29.5 °F /  -1.4 °C 21.9 °F /  -5.6 °C 29.89 in /  1012.1 hPa NE 5.5 mph /  8.9 km/h 11.5 mph /  18.5 km/h 73 % 0.00 in /  0 mm
02:20 29.5 °F /  -1.4 °C 21.6 °F /  -5.8 °C 29.88 in /  1011.7 hPa NNE 9.2 mph /  14.8 km/h 15.0 mph /  24.1 km/h 72 % 0.00 in /  0 mm
02:21 29.5 °F /  -1.4 °C 21.3 °F /  -5.9 °C 29.88 in /  1011.7 hPa NE 8.6 mph /  13.8 km/h 12.7 mph /  20.4 km/h 71 % 0.00 in /  0 mm
02:25 29.6 °F /  -1.3 °C 21.0 °F /  -6.1 °C 29.88 in /  1011.7 hPa NNE 6.6 mph /  10.6 km/h 11.5 mph /  18.5 km/h 70 % 0.00 in /  0 mm
02:31 29.6 °F /  -1.3 °C 21.3 °F /  -5.9 °C 29.87 in /  1011.4 hPa NNE 9.5 mph /  15.3 km/h 17.0 mph /  27.4 km/h 71 % 0.00 in /  0 mm
02:35 29.6 °F /  -1.3 °C 21.7 °F /  -5.7 °C 29.87 in /  1011.4 hPa North 7.7 mph /  12.4 km/h 11.5 mph /  18.5 km/h 72 % 0.00 in /  0 mm
02:39 29.6 °F /  -1.3 °C 22.0 °F /  -5.6 °C 29.63 in /  1003.3 hPa NNE 6.4 mph /  10.3 km/h 18.4 mph /  29.6 km/h 73 % 0.00 in /  0 mm
02:45 29.5 °F /  -1.4 °C 22.2 °F /  -5.4 °C 29.86 in /  1011.1 hPa NNE 6.9 mph /  11.1 km/h 11.5 mph /  18.5 km/h 74 % 0.00 in /  0 mm
02:47 29.4 °F /  -1.4 °C 22.5 °F /  -5.3 °C 29.86 in /  1011.1 hPa NNE 11.1 mph /  17.9 km/h 14.0 mph /  22.5 km/h 75 % 0.00 in /  0 mm
02:52 29.3 °F /  -1.5 °C 22.7 °F /  -5.2 °C 29.85 in /  1010.7 hPa NNE 7.6 mph /  12.2 km/h 17.3 mph /  27.8 km/h 76 % 0.00 in /  0 mm
02:55 29.2 °F /  -1.6 °C 22.9 °F /  -5.1 °C 29.85 in /  1010.7 hPa NNE 9.2 mph /  14.8 km/h 16.0 mph /  25.7 km/h 77 % 0.00 in /  0 mm
03:00 29.0 °F /  -1.7 °C 23.0 °F /  -5 °C 29.84 in /  1010.4 hPa NNE 11.4 mph /  18.3 km/h 16.1 mph /  25.9 km/h 78 % 0.00 in /  0 mm
03:05 28.7 °F /  -1.8 °C 23.3 °F /  -4.8 °C 29.59 in /  1001.9 hPa NE 7.4 mph /  11.9 km/h 16.1 mph /  25.9 km/h 80 % 0.00 in /  0 mm
03:09 28.4 °F /  -2 °C 23.6 °F /  -4.7 °C 29.83 in /  1010 hPa NNE 9.3 mph /  15 km/h 13.8 mph /  22.2 km/h 82 % 0.00 in /  0 mm
03:11 28.4 °F /  -2 °C 23.6 °F /  -4.7 °C 29.83 in /  1010 hPa North 9.1 mph /  14.6 km/h 12.7 mph /  20.4 km/h 82 % 0.00 in /  0 mm
03:13 28.3 °F /  -2.1 °C 23.8 °F /  -4.6 °C 29.57 in /  1001.2 hPa NNE 9.7 mph /  15.6 km/h 13.8 mph /  22.2 km/h 83 % 0.00 in /  0 mm
03:18 28.0 °F /  -2.2 °C 24.1 °F /  -4.4 °C 29.82 in /  1009.7 hPa NNE 7.6 mph /  12.2 km/h 13.0 mph /  20.9 km/h 85 % 0.00 in /  0 mm
03:20 27.9 °F /  -2.3 °C 24.0 °F /  -4.4 °C 29.81 in /  1009.4 hPa NNE 10.5 mph /  16.9 km/h 16.1 mph /  25.9 km/h 85 % 0.00 in /  0 mm
03:25 27.6 °F /  -2.4 °C 24.0 °F /  -4.4 °C 29.81 in /  1009.4 hPa NE 11.3 mph /  18.2 km/h 17.3 mph /  27.8 km/h 86 % 0.00 in /  0 mm
03:30 27.4 °F /  -2.6 °C 24.0 °F /  -4.4 °C 29.80 in /  1009 hPa NNE 10.7 mph /  17.2 km/h 15.0 mph /  24.1 km/h 87 % 0.00 in /  0 mm
03:31 27.4 °F /  -2.6 °C 24.0 °F /  -4.4 °C 29.80 in /  1009 hPa NNE 12.3 mph /  19.8 km/h 18.0 mph /  29 km/h 87 % 0.00 in /  0 mm
03:36 27.2 °F /  -2.7 °C 23.8 °F /  -4.6 °C 29.79 in /  1008.7 hPa NNE 11.2 mph /  18 km/h 19.6 mph /  31.5 km/h 87 % 0.00 in /  0 mm
03:43 26.9 °F /  -2.8 °C 23.8 °F /  -4.6 °C 29.78 in /  1008.4 hPa North 10.4 mph /  16.7 km/h 18.4 mph /  29.6 km/h 88 % 0.00 in /  0 mm
03:48 26.7 °F /  -2.9 °C 23.6 °F /  -4.7 °C 29.76 in /  1007.7 hPa NE 9.6 mph /  15.4 km/h 17.3 mph /  27.8 km/h 88 % 0.00 in /  0 mm
03:51 26.7 °F /  -2.9 °C 23.9 °F /  -4.5 °C 29.76 in /  1007.7 hPa NNE 8.0 mph /  12.9 km/h 11.5 mph /  18.5 km/h 89 % 0.00 in /  0 mm
03:56 26.4 °F /  -3.1 °C 23.6 °F /  -4.7 °C 29.76 in /  1007.7 hPa North 10.5 mph /  16.9 km/h 18.4 mph /  29.6 km/h 89 % 0.00 in /  0 mm
03:59 26.3 °F /  -3.2 °C 23.5 °F /  -4.7 °C 29.76 in /  1007.7 hPa North 11.3 mph /  18.2 km/h 18.4 mph /  29.6 km/h 89 % 0.00 in /  0 mm
04:01 26.2 °F /  -3.2 °C 23.4 °F /  -4.8 °C 29.75 in /  1007.3 hPa NNE 10.7 mph /  17.2 km/h 15.0 mph /  24.1 km/h 89 % 0.00 in /  0 mm
04:06 26.0 °F /  -3.3 °C 23.5 °F /  -4.7 °C 29.75 in /  1007.3 hPa NNE 9.4 mph /  15.1 km/h 15.0 mph /  24.1 km/h 90 % 0.00 in /  0 mm
04:10 25.9 °F /  -3.4 °C 23.4 °F /  -4.8 °C 29.73 in /  1006.7 hPa NNE 11.8 mph /  19 km/h 16.0 mph /  25.7 km/h 90 % 0.00 in /  0 mm
04:15 25.9 °F /  -3.4 °C 23.4 °F /  -4.8 °C 29.73 in /  1006.7 hPa North 11.0 mph /  17.7 km/h 15.0 mph /  24.1 km/h 90 % 0.00 in /  0 mm
04:16 25.8 °F /  -3.4 °C 23.3 °F /  -4.8 °C 29.72 in /  1006.3 hPa NE 7.9 mph /  12.7 km/h 13.8 mph /  22.2 km/h 90 % 0.00 in /  0 mm
04:21 25.8 °F /  -3.4 °C 23.5 °F /  -4.7 °C 29.72 in /  1006.3 hPa NNE 10.1 mph /  16.3 km/h 12.7 mph /  20.4 km/h 91 % 0.00 in /  0 mm
04:26 25.7 °F /  -3.5 °C 23.2 °F /  -4.9 °C 29.71 in /  1006 hPa NNE 9.9 mph /  15.9 km/h 15.0 mph /  24.1 km/h 90 % 0.00 in /  0 mm
04:30 25.6 °F /  -3.6 °C 23.3 °F /  -4.8 °C 29.71 in /  1006 hPa NNE 9.8 mph /  15.8 km/h 17.3 mph /  27.8 km/h 91 % 0.00 in /  0 mm
04:32 25.6 °F /  -3.6 °C 23.3 °F /  -4.8 °C 29.71 in /  1006 hPa NNE 10.5 mph /  16.9 km/h 13.0 mph /  20.9 km/h 91 % 0.00 in /  0 mm
04:37 25.6 °F /  -3.6 °C 23.3 °F /  -4.8 °C 29.70 in /  1005.6 hPa NNE 11.3 mph /  18.2 km/h 18.4 mph /  29.6 km/h 91 % 0.00 in /  0 mm
04:42 25.5 °F /  -3.6 °C 23.2 °F /  -4.9 °C 29.69 in /  1005.3 hPa North 9.5 mph /  15.3 km/h 12.7 mph /  20.4 km/h 91 % 0.00 in /  0 mm
04:43 25.6 °F /  -3.6 °C 23.3 °F /  -4.8 °C 29.69 in /  1005.3 hPa North 10.9 mph /  17.5 km/h 14.0 mph /  22.5 km/h 91 % 0.00 in /  0 mm
04:48 25.6 °F /  -3.6 °C 23.6 °F /  -4.7 °C 29.69 in /  1005.3 hPa NNE 9.6 mph /  15.4 km/h 13.8 mph /  22.2 km/h 92 % 0.00 in /  0 mm
04:52 25.7 °F /  -3.5 °C 23.7 °F /  -4.6 °C 29.68 in /  1005 hPa North 11.9 mph /  19.2 km/h 17.0 mph /  27.4 km/h 92 % 0.00 in /  0 mm
04:56 25.7 °F /  -3.5 °C 23.7 °F /  -4.6 °C 29.68 in /  1005 hPa NNE 11.3 mph /  18.2 km/h 17.3 mph /  27.8 km/h 92 % 0.01 in /  0.25 mm
04:57 25.7 °F /  -3.5 °C 23.7 °F /  -4.6 °C 29.68 in /  1005 hPa North 10.7 mph /  17.2 km/h 17.3 mph /  27.8 km/h 92 % 0.01 in /  0.25 mm
05:02 25.8 °F /  -3.4 °C 23.8 °F /  -4.6 °C 29.67 in /  1004.6 hPa NNE 8.5 mph /  13.7 km/h 13.8 mph /  22.2 km/h 92 % 0.01 in /  0.25 mm
05:07 25.8 °F /  -3.4 °C 23.8 °F /  -4.6 °C 29.67 in /  1004.6 hPa NNE 11.0 mph /  17.7 km/h 16.1 mph /  25.9 km/h 92 % 0.01 in /  0.25 mm
05:12 25.9 °F /  -3.4 °C 23.9 °F /  -4.5 °C 29.66 in /  1004.3 hPa NNE 8.0 mph /  12.9 km/h 16.1 mph /  25.9 km/h 92 % 0.01 in /  0.25 mm
05:17 26.0 °F /  -3.3 °C 24.0 °F /  -4.4 °C 29.66 in /  1004.3 hPa NNE 6.3 mph /  10.1 km/h 10.0 mph /  16.1 km/h 92 % 0.01 in /  0.25 mm
05:27 26.0 °F /  -3.3 °C 24.3 °F /  -4.3 °C 29.65 in /  1003.9 hPa NNW 10.6 mph /  17.1 km/h 13.8 mph /  22.2 km/h 93 % 0.02 in /  0.51 mm
05:28 26.0 °F /  -3.3 °C 24.3 °F /  -4.3 °C 29.64 in /  1003.6 hPa North 6.0 mph /  9.7 km/h 8.1 mph /  13 km/h 93 % 0.02 in /  0.51 mm
05:33 26.1 °F /  -3.3 °C 24.4 °F /  -4.2 °C 29.64 in /  1003.6 hPa North 7.1 mph /  11.4 km/h 14.0 mph /  22.5 km/h 93 % 0.02 in /  0.51 mm
05:34 26.1 °F /  -3.3 °C 24.4 °F /  -4.2 °C 29.64 in /  1003.6 hPa NNE 8.3 mph /  13.4 km/h 13.8 mph /  22.2 km/h 93 % 0.02 in /  0.51 mm
05:39 26.1 °F /  -3.3 °C 24.4 °F /  -4.2 °C 29.64 in /  1003.6 hPa NNE 7.1 mph /  11.4 km/h 10.4 mph /  16.7 km/h 93 % 0.03 in /  0.76 mm
05:42 26.2 °F /  -3.2 °C 24.5 °F /  -4.2 °C 29.64 in /  1003.6 hPa North 6.9 mph /  11.1 km/h 12.7 mph /  20.4 km/h 93 % 0.03 in /  0.76 mm
05:46 26.2 °F /  -3.2 °C 24.5 °F /  -4.2 °C 29.63 in /  1003.3 hPa ENE 8.4 mph /  13.5 km/h 11.5 mph /  18.5 km/h 93 % 0.03 in /  0.76 mm
05:47 26.2 °F /  -3.2 °C 24.5 °F /  -4.2 °C 29.63 in /  1003.3 hPa NE 8.1 mph /  13 km/h 13.8 mph /  22.2 km/h 93 % 0.03 in /  0.76 mm
05:52 26.3 °F /  -3.2 °C 24.6 °F /  -4.1 °C 29.62 in /  1002.9 hPa NNE 6.5 mph /  10.5 km/h 11.5 mph /  18.5 km/h 93 % 0.04 in /  1.02 mm
05:54 26.2 °F /  -3.2 °C 24.5 °F /  -4.2 °C 29.63 in /  1003.3 hPa North 7.3 mph /  11.7 km/h 13.0 mph /  20.9 km/h 93 % 0.04 in /  1.02 mm
05:59 26.2 °F /  -3.2 °C 24.5 °F /  -4.2 °C 29.62 in /  1002.9 hPa NE 4.6 mph /  7.4 km/h 13.8 mph /  22.2 km/h 93 % 0.03 in /  0.76 mm
06:04 26.3 °F /  -3.2 °C 24.6 °F /  -4.1 °C 29.62 in /  1002.9 hPa North 5.7 mph /  9.2 km/h 11.5 mph /  18.5 km/h 93 % 0.04 in /  1.02 mm
06:06 26.3 °F /  -3.2 °C 24.6 °F /  -4.1 °C 29.62 in /  1002.9 hPa North 4.1 mph /  6.6 km/h 11.5 mph /  18.5 km/h 93 % 0.04 in /  1.02 mm
06:08 26.3 °F /  -3.2 °C 24.6 °F /  -4.1 °C 29.60 in /  1002.3 hPa North 3.0 mph /  4.8 km/h 3.5 mph /  5.6 km/h 93 % 0.04 in /  1.02 mm
06:13 26.3 °F /  -3.2 °C 24.6 °F /  -4.1 °C 29.59 in /  1001.9 hPa North 8.9 mph /  14.3 km/h 16.1 mph /  25.9 km/h 93 % 0.04 in /  1.02 mm
06:16 26.4 °F /  -3.1 °C 24.7 °F /  -4.1 °C 29.59 in /  1001.9 hPa NNE 4.9 mph /  7.9 km/h 8.1 mph /  13 km/h 93 % 0.05 in /  1.27 mm
06:21 26.4 °F /  -3.1 °C 24.7 °F /  -4.1 °C 29.58 in /  1001.6 hPa NNW 8.3 mph /  13.4 km/h 13.8 mph /  22.2 km/h 93 % 0.05 in /  1.27 mm
06:22 26.4 °F /  -3.1 °C 24.7 °F /  -4.1 °C 29.58 in /  1001.6 hPa NNE 7.9 mph /  12.7 km/h 13.8 mph /  22.2 km/h 93 % 0.05 in /  1.27 mm
06:27 26.5 °F /  -3.1 °C 24.8 °F /  -4 °C 29.57 in /  1001.2 hPa North 11.9 mph /  19.2 km/h 18.4 mph /  29.6 km/h 93 % 0.05 in /  1.27 mm
06:30 26.5 °F /  -3.1 °C 25.0 °F /  -3.9 °C 29.56 in /  1000.9 hPa North 11.7 mph /  18.8 km/h 23.0 mph /  37 km/h 94 % 0.05 in /  1.27 mm
06:35 26.5 °F /  -3.1 °C 24.8 °F /  -4 °C 29.56 in /  1000.9 hPa NNE 10.3 mph /  16.6 km/h 17.3 mph /  27.8 km/h 93 % 0.05 in /  1.27 mm
06:37 26.5 °F /  -3.1 °C 24.8 °F /  -4 °C 29.56 in /  1000.9 hPa North 11.3 mph /  18.2 km/h 21.9 mph /  35.2 km/h 93 % 0.05 in /  1.27 mm
06:42 26.6 °F /  -3 °C 25.1 °F /  -3.8 °C 29.55 in /  1000.6 hPa NE 10.9 mph /  17.5 km/h 25.3 mph /  40.7 km/h 94 % 0.05 in /  1.27 mm
06:46 26.6 °F /  -3 °C 25.1 °F /  -3.8 °C 29.55 in /  1000.6 hPa NNE 13.3 mph /  21.4 km/h 23.0 mph /  37 km/h 94 % 0.05 in /  1.27 mm
06:50 26.5 °F /  -3.1 °C 25.0 °F /  -3.9 °C 29.54 in /  1000.2 hPa NE 16.3 mph /  26.2 km/h 26.5 mph /  42.6 km/h 94 % 0.06 in /  1.52 mm
06:51 26.5 °F /  -3.1 °C 25.0 °F /  -3.9 °C 29.54 in /  1000.2 hPa NNE 16.7 mph /  26.9 km/h 25.3 mph /  40.7 km/h 94 % 0.06 in /  1.52 mm
06:56 26.5 °F /  -3.1 °C 25.0 °F /  -3.9 °C 29.53 in /  999.9 hPa North 14.8 mph /  23.8 km/h 18.4 mph /  29.6 km/h 94 % 0.05 in /  1.27 mm
06:58 26.6 °F /  -3 °C 25.1 °F /  -3.8 °C 29.53 in /  999.9 hPa NE 14.0 mph /  22.5 km/h 18.4 mph /  29.6 km/h 94 % 0.05 in /  1.27 mm
07:03 26.6 °F /  -3 °C 25.1 °F /  -3.8 °C 29.53 in /  999.9 hPa NNE 16.1 mph /  25.9 km/h 17.3 mph /  27.8 km/h 94 % 0.06 in /  1.52 mm
07:08 26.7 °F /  -2.9 °C 25.2 °F /  -3.8 °C 29.53 in /  999.9 hPa NNE 17.6 mph /  28.3 km/h 27.6 mph /  44.4 km/h 94 % 0.05 in /  1.27 mm
07:11 26.7 °F /  -2.9 °C 25.2 °F /  -3.8 °C 29.53 in /  999.9 hPa North 16.7 mph /  26.9 km/h 23.0 mph /  37 km/h 94 % 0.05 in /  1.27 mm
07:17 26.8 °F /  -2.9 °C 25.3 °F /  -3.7 °C 29.53 in /  999.9 hPa North 13.8 mph /  22.2 km/h 25.0 mph /  40.2 km/h 94 % 0.05 in /  1.27 mm
07:22 26.8 °F /  -2.9 °C 25.3 °F /  -3.7 °C 29.52 in /  999.5 hPa North 13.2 mph /  21.2 km/h 25.0 mph /  40.2 km/h 94 % 0.05 in /  1.27 mm
07:27 26.7 °F /  -2.9 °C 25.2 °F /  -3.8 °C 29.51 in /  999.2 hPa NNE 12.9 mph /  20.8 km/h 29.9 mph /  48.1 km/h 94 % 0.05 in /  1.27 mm
07:30 26.7 °F /  -2.9 °C 25.2 °F /  -3.8 °C 29.51 in /  999.2 hPa North 19.1 mph /  30.7 km/h 26.5 mph /  42.6 km/h 94 % 0.05 in /  1.27 mm
07:35 26.8 °F /  -2.9 °C 25.6 °F /  -3.6 °C 29.50 in /  998.9 hPa NE 17.6 mph /  28.3 km/h 25.3 mph /  40.7 km/h 95 % 0.05 in /  1.27 mm
07:36 26.8 °F /  -2.9 °C 25.6 °F /  -3.6 °C 29.50 in /  998.9 hPa NNE 18.2 mph /  29.3 km/h 26.0 mph /  41.8 km/h 95 % 0.06 in /  1.52 mm
07:47 27.0 °F /  -2.8 °C 25.8 °F /  -3.4 °C 29.49 in /  998.5 hPa NE 14.9 mph /  24 km/h 24.2 mph /  38.9 km/h 95 % 0.06 in /  1.52 mm
07:48 27.0 °F /  -2.8 °C 25.8 °F /  -3.4 °C 29.49 in /  998.5 hPa North 14.1 mph /  22.7 km/h 29.0 mph /  46.7 km/h 95 % 0.06 in /  1.52 mm
07:49 27.0 °F /  -2.8 °C 25.8 °F /  -3.4 °C 29.24 in /  990.1 hPa NNE 16.6 mph /  26.7 km/h 28.8 mph /  46.3 km/h 95 % 0.06 in /  1.52 mm
07:53 27.0 °F /  -2.8 °C 25.8 °F /  -3.4 °C 29.48 in /  998.2 hPa NNW 14.0 mph /  22.5 km/h 26.5 mph /  42.6 km/h 95 % 0.06 in /  1.52 mm
07:58 26.9 °F /  -2.8 °C 25.7 °F /  -3.5 °C 29.48 in /  998.2 hPa North 12.8 mph /  20.6 km/h 24.2 mph /  38.9 km/h 95 % 0.06 in /  1.52 mm
07:59 26.9 °F /  -2.8 °C 25.7 °F /  -3.5 °C 29.48 in /  998.2 hPa NW 12.5 mph /  20.1 km/h 19.6 mph /  31.5 km/h 95 % 0.06 in /  1.52 mm
08:03 27.0 °F /  -2.8 °C 25.8 °F /  -3.4 °C 29.47 in /  997.9 hPa NNE 12.7 mph /  20.4 km/h 24.2 mph /  38.9 km/h 95 % 0.06 in /  1.52 mm
08:08 27.0 °F /  -2.8 °C 25.8 °F /  -3.4 °C 29.47 in /  997.9 hPa NNW 13.2 mph /  21.2 km/h 22.0 mph /  35.4 km/h 95 % 0.06 in /  1.52 mm
08:11 27.0 °F /  -2.8 °C 25.8 °F /  -3.4 °C 29.47 in /  997.9 hPa NNE 13.9 mph /  22.4 km/h 23.0 mph /  37 km/h 95 % 0.06 in /  1.52 mm
08:16 27.0 °F /  -2.8 °C 25.8 °F /  -3.4 °C 29.47 in /  997.9 hPa NNE 16.0 mph /  25.7 km/h 30.0 mph /  48.3 km/h 95 % 0.00 in /  0 mm
08:20 27.0 °F /  -2.8 °C 25.8 °F /  -3.4 °C 29.47 in /  997.9 hPa NNE 10.3 mph /  16.6 km/h 21.9 mph /  35.2 km/h 95 % 0.06 in /  1.52 mm
08:24 27.0 °F /  -2.8 °C 25.8 °F /  -3.4 °C 29.48 in /  998.2 hPa NNW 16.8 mph /  27 km/h 26.5 mph /  42.6 km/h 95 % 0.07 in /  1.78 mm
08:28 27.0 °F /  -2.8 °C 25.8 °F /  -3.4 °C 29.48 in /  998.2 hPa North 16.3 mph /  26.2 km/h 23.0 mph /  37 km/h 95 % 0.06 in /  1.52 mm
08:34 27.2 °F /  -2.7 °C 26.0 °F /  -3.3 °C 29.47 in /  997.9 hPa NNE 12.8 mph /  20.6 km/h 26.5 mph /  42.6 km/h 95 % 0.07 in /  1.78 mm
08:36 27.2 °F /  -2.7 °C 26.0 °F /  -3.3 °C 29.46 in /  997.5 hPa NE 16.8 mph /  27 km/h 22.0 mph /  35.4 km/h 95 % 0.06 in /  1.52 mm
08:41 27.3 °F /  -2.6 °C 26.1 °F /  -3.3 °C 29.46 in /  997.5 hPa NNW 12.4 mph /  20 km/h 20.7 mph /  33.3 km/h 95 % 0.07 in /  1.78 mm
08:47 27.3 °F /  -2.6 °C 26.1 °F /  -3.3 °C 29.45 in /  997.2 hPa North 14.0 mph /  22.5 km/h 23.0 mph /  37 km/h 95 % 0.07 in /  1.78 mm
08:52 27.2 °F /  -2.7 °C 26.2 °F /  -3.2 °C 29.44 in /  996.8 hPa North 13.7 mph /  22 km/h 18.4 mph /  29.6 km/h 96 % 0.07 in /  1.78 mm
08:55 27.3 °F /  -2.6 °C 26.3 °F /  -3.2 °C 29.44 in /  996.8 hPa North 12.5 mph /  20.1 km/h 26.5 mph /  42.6 km/h 96 % 0.07 in /  1.78 mm
09:01 27.3 °F /  -2.6 °C 26.3 °F /  -3.2 °C 29.44 in /  996.8 hPa NE 12.9 mph /  20.8 km/h 19.6 mph /  31.5 km/h 96 % 0.08 in /  2.03 mm
09:03 27.2 °F /  -2.7 °C 26.2 °F /  -3.2 °C 29.43 in /  996.5 hPa North 16.9 mph /  27.2 km/h 26.5 mph /  42.6 km/h 96 % 0.08 in /  2.03 mm
09:08 27.1 °F /  -2.7 °C 26.1 °F /  -3.3 °C 29.43 in /  996.5 hPa NNW 13.9 mph /  22.4 km/h 24.2 mph /  38.9 km/h 96 % 0.09 in /  2.29 mm
09:09 27.1 °F /  -2.7 °C 26.1 °F /  -3.3 °C 29.43 in /  996.5 hPa NNE 13.9 mph /  22.4 km/h 23.0 mph /  37 km/h 96 % 0.09 in /  2.29 mm
09:14 27.0 °F /  -2.8 °C 26.0 °F /  -3.3 °C 29.42 in /  996.2 hPa North 11.3 mph /  18.2 km/h 21.9 mph /  35.2 km/h 96 % 0.09 in /  2.29 mm
09:18 26.9 °F /  -2.8 °C 25.9 °F /  -3.4 °C 29.40 in /  995.5 hPa NNE 13.2 mph /  21.2 km/h 26.5 mph /  42.6 km/h 96 % 0.09 in /  2.29 mm
09:23 26.9 °F /  -2.8 °C 25.9 °F /  -3.4 °C 29.40 in /  995.5 hPa North 17.1 mph /  27.5 km/h 25.3 mph /  40.7 km/h 96 % 0.10 in /  2.54 mm
09:24 26.8 °F /  -2.9 °C 25.8 °F /  -3.4 °C 29.40 in /  995.5 hPa North 17.3 mph /  27.8 km/h 25.3 mph /  40.7 km/h 96 % 0.10 in /  2.54 mm
09:26 26.8 °F /  -2.9 °C 25.8 °F /  -3.4 °C 29.40 in /  995.5 hPa NE 15.9 mph /  25.6 km/h 26.5 mph /  42.6 km/h 96 % 0.10 in /  2.54 mm
09:35 26.6 °F /  -3 °C 25.6 °F /  -3.6 °C 29.39 in /  995.1 hPa NNE 16.5 mph /  26.6 km/h 29.0 mph /  46.7 km/h 96 % 0.11 in /  2.79 mm
09:39 26.5 °F /  -3.1 °C 25.5 °F /  -3.6 °C 29.39 in /  995.1 hPa NNE 18.7 mph /  30.1 km/h 25.0 mph /  40.2 km/h 96 % 0.12 in /  3.05 mm
09:44 26.3 °F /  -3.2 °C 25.3 °F /  -3.7 °C 29.38 in /  994.8 hPa NNW 22.8 mph /  36.7 km/h 24.2 mph /  38.9 km/h 96 % 0.11 in /  2.79 mm
09:48 26.2 °F /  -3.2 °C 25.0 °F /  -3.9 °C 29.13 in /  986.3 hPa NNE 11.8 mph /  19 km/h 27.0 mph /  43.5 km/h 95 % 0.11 in /  2.79 mm
09:49 26.2 °F /  -3.2 °C 25.0 °F /  -3.9 °C 29.37 in /  994.5 hPa North 16.5 mph /  26.6 km/h 26.5 mph /  42.6 km/h 95 % 0.11 in /  2.79 mm
09:53 26.1 °F /  -3.3 °C 25.1 °F /  -3.8 °C 29.37 in /  994.5 hPa NNW 16.1 mph /  25.9 km/h 29.9 mph /  48.1 km/h 96 % 0.11 in /  2.79 mm
09:58 26.0 °F /  -3.3 °C 25.0 °F /  -3.9 °C 29.36 in /  994.1 hPa North 18.5 mph /  29.8 km/h 25.3 mph /  40.7 km/h 96 % 0.11 in /  2.79 mm
10:00 25.9 °F /  -3.4 °C 24.9 °F /  -3.9 °C 29.37 in /  994.5 hPa North 15.2 mph /  24.5 km/h 29.9 mph /  48.1 km/h 96 % 0.11 in /  2.79 mm
10:03 25.9 °F /  -3.4 °C 24.9 °F /  -3.9 °C 29.37 in /  994.5 hPa North 19.0 mph /  30.6 km/h 26.5 mph /  42.6 km/h 96 % 0.11 in /  2.79 mm
10:08 25.7 °F /  -3.5 °C 24.7 °F /  -4.1 °C 29.36 in /  994.1 hPa NNE 18.2 mph /  29.3 km/h 26.5 mph /  42.6 km/h 96 % 0.11 in /  2.79 mm
10:13 25.6 °F /  -3.6 °C 24.4 °F /  -4.2 °C 29.35 in /  993.8 hPa NE 17.8 mph /  28.6 km/h 31.1 mph /  50 km/h 95 % 0.11 in /  2.79 mm
10:19 25.6 °F /  -3.6 °C 24.4 °F /  -4.2 °C 29.35 in /  993.8 hPa North 16.8 mph /  27 km/h 32.2 mph /  51.8 km/h 95 % 0.11 in /  2.79 mm
10:22 25.5 °F /  -3.6 °C 24.3 °F /  -4.3 °C 29.35 in /  993.8 hPa NNE 15.2 mph /  24.5 km/h 26.5 mph /  42.6 km/h 95 % 0.10 in /  2.54 mm
10:27 25.5 °F /  -3.6 °C 24.5 °F /  -4.2 °C 29.35 in /  993.8 hPa NNE 17.7 mph /  28.5 km/h 26.5 mph /  42.6 km/h 96 % 0.10 in /  2.54 mm
10:29 25.5 °F /  -3.6 °C 24.5 °F /  -4.2 °C 29.35 in /  993.8 hPa NNW 15.0 mph /  24.1 km/h 29.9 mph /  48.1 km/h 96 % 0.10 in /  2.54 mm
10:32 25.5 °F /  -3.6 °C 24.5 °F /  -4.2 °C 29.35 in /  993.8 hPa NNW 18.7 mph /  30.1 km/h 27.0 mph /  43.5 km/h 96 % 0.10 in /  2.54 mm
10:35 25.4 °F /  -3.7 °C 24.4 °F /  -4.2 °C 29.35 in /  993.8 hPa North 13.4 mph /  21.6 km/h 25.3 mph /  40.7 km/h 96 % 0.09 in /  2.29 mm
10:40 25.4 °F /  -3.7 °C 24.4 °F /  -4.2 °C 29.34 in /  993.5 hPa NNE 15.4 mph /  24.8 km/h 29.9 mph /  48.1 km/h 96 % 0.08 in /  2.03 mm
10:45 25.4 °F /  -3.7 °C 24.4 °F /  -4.2 °C 29.33 in /  993.1 hPa NW 13.0 mph /  20.9 km/h 28.8 mph /  46.3 km/h 96 % 0.08 in /  2.03 mm
10:50 25.4 °F /  -3.7 °C 24.4 °F /  -4.2 °C 29.31 in /  992.4 hPa North 11.4 mph /  18.3 km/h 19.6 mph /  31.5 km/h 96 % 0.07 in /  1.78 mm
10:52 25.4 °F /  -3.7 °C 24.4 °F /  -4.2 °C 29.31 in /  992.4 hPa NW 14.4 mph /  23.2 km/h 23.0 mph /  37 km/h 96 % 0.08 in /  2.03 mm
10:53 25.4 °F /  -3.7 °C 24.4 °F /  -4.2 °C 29.31 in /  992.4 hPa North 16.2 mph /  26.1 km/h 23.0 mph /  37 km/h 96 % 0.08 in /  2.03 mm
10:54 25.3 °F /  -3.7 °C 24.3 °F /  -4.3 °C 29.32 in /  992.8 hPa NNW 13.2 mph /  21.2 km/h 20.7 mph /  33.3 km/h 96 % 0.08 in /  2.03 mm
10:59 25.3 °F /  -3.7 °C 24.3 °F /  -4.3 °C 29.31 in /  992.4 hPa North 16.2 mph /  26.1 km/h 32.0 mph /  51.5 km/h 96 % 0.07 in /  1.78 mm
11:00 25.3 °F /  -3.7 °C 24.3 °F /  -4.3 °C 29.31 in /  992.4 hPa North 14.4 mph /  23.2 km/h 26.5 mph /  42.6 km/h 96 % 0.07 in /  1.78 mm
11:05 25.3 °F /  -3.7 °C 24.3 °F /  -4.3 °C 29.31 in /  992.4 hPa NNW 11.0 mph /  17.7 km/h 24.2 mph /  38.9 km/h 96 % 0.07 in /  1.78 mm
11:11 25.4 °F /  -3.7 °C 24.4 °F /  -4.2 °C 29.30 in /  992.1 hPa North 14.7 mph /  23.7 km/h 25.3 mph /  40.7 km/h 96 % 0.07 in /  1.78 mm
11:16 25.4 °F /  -3.7 °C 24.4 °F /  -4.2 °C 29.28 in /  991.4 hPa North 16.2 mph /  26.1 km/h 25.3 mph /  40.7 km/h 96 % 0.07 in /  1.78 mm
11:18 25.5 °F /  -3.6 °C 24.5 °F /  -4.2 °C 29.28 in /  991.4 hPa NNW 9.9 mph /  15.9 km/h 20.7 mph /  33.3 km/h 96 % 0.07 in /  1.78 mm
11:20 25.5 °F /  -3.6 °C 24.5 °F /  -4.2 °C 29.28 in /  991.4 hPa NNE 12.1 mph /  19.5 km/h 27.6 mph /  44.4 km/h 96 % 0.07 in /  1.78 mm
11:22 25.5 °F /  -3.6 °C 24.5 °F /  -4.2 °C 29.03 in /  983 hPa North 10.6 mph /  17.1 km/h 19.6 mph /  31.5 km/h 96 % 0.06 in /  1.52 mm
11:26 25.6 °F /  -3.6 °C 24.6 °F /  -4.1 °C 29.27 in /  991.1 hPa NNE 15.9 mph /  25.6 km/h 26.5 mph /  42.6 km/h 96 % 0.07 in /  1.78 mm
11:31 25.7 °F /  -3.5 °C 24.7 °F /  -4.1 °C 29.27 in /  991.1 hPa NNE 10.4 mph /  16.7 km/h 19.6 mph /  31.5 km/h 96 % 0.07 in /  1.78 mm
11:32 25.7 °F /  -3.5 °C 24.7 °F /  -4.1 °C 29.26 in /  990.7 hPa NNW 12.8 mph /  20.6 km/h 23.0 mph /  37 km/h 96 % 0.06 in /  1.52 mm
11:33 25.7 °F /  -3.5 °C 24.7 °F /  -4.1 °C 29.26 in /  990.7 hPa North 12.5 mph /  20.1 km/h 18.0 mph /  29 km/h 96 % 0.06 in /  1.52 mm
11:37 25.8 °F /  -3.4 °C 24.8 °F /  -4 °C 29.26 in /  990.7 hPa NNE 8.6 mph /  13.8 km/h 15.0 mph /  24.1 km/h 96 % 0.07 in /  1.78 mm
11:38 25.8 °F /  -3.4 °C 24.8 °F /  -4 °C 29.26 in /  990.7 hPa NW 10.0 mph /  16.1 km/h 28.8 mph /  46.3 km/h 96 % 0.07 in /  1.78 mm
11:42 25.8 °F /  -3.4 °C 24.8 °F /  -4 °C 29.25 in /  990.4 hPa NNE 11.5 mph /  18.5 km/h 18.4 mph /  29.6 km/h 96 % 0.06 in /  1.52 mm
11:47 25.9 °F /  -3.4 °C 24.9 °F /  -3.9 °C 29.24 in /  990.1 hPa NNW 8.6 mph /  13.8 km/h 20.7 mph /  33.3 km/h 96 % 0.07 in /  1.78 mm
11:52 25.9 °F /  -3.4 °C 24.9 °F /  -3.9 °C 29.23 in /  989.7 hPa NNE 11.7 mph /  18.8 km/h 19.6 mph /  31.5 km/h 96 % 0.06 in /  1.52 mm
11:57 25.8 °F /  -3.4 °C 24.8 °F /  -4 °C 29.24 in /  990.1 hPa North 12.8 mph /  20.6 km/h 25.0 mph /  40.2 km/h 96 % 0.07 in /  1.78 mm
11:58 25.8 °F /  -3.4 °C 24.8 °F /  -4 °C 28.99 in /  981.6 hPa NNW 15.8 mph /  25.4 km/h 27.6 mph /  44.4 km/h 96 % 0.07 in /  1.78 mm
12:02 25.7 °F /  -3.5 °C 24.7 °F /  -4.1 °C 29.24 in /  990.1 hPa North 14.5 mph /  23.3 km/h 21.9 mph /  35.2 km/h 96 % 0.06 in /  1.52 mm
12:06 25.5 °F /  -3.6 °C 24.5 °F /  -4.2 °C 29.23 in /  989.7 hPa NNE 16.2 mph /  26.1 km/h 25.3 mph /  40.7 km/h 96 % 0.07 in /  1.78 mm
12:11 25.3 °F /  -3.7 °C 24.3 °F /  -4.3 °C 29.23 in /  989.7 hPa NNW 11.1 mph /  17.9 km/h 20.7 mph /  33.3 km/h 96 % 0.06 in /  1.52 mm
12:17 25.2 °F /  -3.8 °C 24.2 °F /  -4.3 °C 29.21 in /  989.1 hPa NE 14.5 mph /  23.3 km/h 25.3 mph /  40.7 km/h 96 % 0.06 in /  1.52 mm
12:22 25.1 °F /  -3.8 °C 24.1 °F /  -4.4 °C 29.20 in /  988.7 hPa NNW 18.0 mph /  29 km/h 26.5 mph /  42.6 km/h 96 % 0.06 in /  1.52 mm
12:26 25.1 °F /  -3.8 °C 24.1 °F /  -4.4 °C 29.21 in /  989.1 hPa NNW 12.7 mph /  20.4 km/h 33.4 mph /  53.8 km/h 96 % 0.05 in /  1.27 mm
12:27 25.1 °F /  -3.8 °C 24.1 °F /  -4.4 °C 29.20 in /  988.7 hPa NNE 14.5 mph /  23.3 km/h 33.4 mph /  53.8 km/h 96 % 0.05 in /  1.27 mm
12:28 25.1 °F /  -3.8 °C 24.1 °F /  -4.4 °C 29.20 in /  988.7 hPa NNW 16.9 mph /  27.2 km/h 20.7 mph /  33.3 km/h 96 % 0.05 in /  1.27 mm
12:33 25.1 °F /  -3.8 °C 24.1 °F /  -4.4 °C 29.19 in /  988.4 hPa NNW 14.2 mph /  22.9 km/h 24.2 mph /  38.9 km/h 96 % 0.06 in /  1.52 mm
12:37 25.1 °F /  -3.8 °C 24.1 °F /  -4.4 °C 29.19 in /  988.4 hPa NNW 10.9 mph /  17.5 km/h 20.7 mph /  33.3 km/h 96 % 0.05 in /  1.27 mm
12:42 25.2 °F /  -3.8 °C 24.2 °F /  -4.3 °C 29.18 in /  988 hPa NNW 9.3 mph /  15 km/h 27.6 mph /  44.4 km/h 96 % 0.05 in /  1.27 mm
12:47 25.2 °F /  -3.8 °C 24.2 °F /  -4.3 °C 29.18 in /  988 hPa North 9.8 mph /  15.8 km/h 19.6 mph /  31.5 km/h 96 % 0.04 in /  1.02 mm
12:52 25.2 °F /  -3.8 °C 24.2 °F /  -4.3 °C 29.18 in /  988 hPa NNE 10.2 mph /  16.4 km/h 17.3 mph /  27.8 km/h 96 % 0.05 in /  1.27 mm
12:55 25.2 °F /  -3.8 °C 24.2 °F /  -4.3 °C 29.18 in /  988 hPa NW 12.0 mph /  19.3 km/h 17.0 mph /  27.4 km/h 96 % 0.04 in /  1.02 mm
12:56 25.2 °F /  -3.8 °C 24.2 °F /  -4.3 °C 29.17 in /  987.7 hPa NNW 12.0 mph /  19.3 km/h 26.5 mph /  42.6 km/h 96 % 0.04 in /  1.02 mm
13:01 25.2 °F /  -3.8 °C 24.2 °F /  -4.3 °C 29.17 in /  987.7 hPa NW 15.7 mph /  25.3 km/h 20.0 mph /  32.2 km/h 96 % 0.04 in /  1.02 mm
13:02 25.2 °F /  -3.8 °C 24.2 °F /  -4.3 °C 29.17 in /  987.7 hPa NE 14.1 mph /  22.7 km/h 26.5 mph /  42.6 km/h 96 % 0.04 in /  1.02 mm
13:07 25.1 °F /  -3.8 °C 24.1 °F /  -4.4 °C 29.17 in /  987.7 hPa NNE 10.6 mph /  17.1 km/h 25.3 mph /  40.7 km/h 96 % 0.03 in /  0.76 mm
13:13 25.1 °F /  -3.8 °C 23.9 °F /  -4.5 °C 29.18 in /  988 hPa NW 16.5 mph /  26.6 km/h 29.9 mph /  48.1 km/h 95 % 0.03 in /  0.76 mm
13:18 25.1 °F /  -3.8 °C 24.1 °F /  -4.4 °C 29.17 in /  987.7 hPa North 12.6 mph /  20.3 km/h 24.2 mph /  38.9 km/h 96 % 0.03 in /  0.76 mm
13:19 25.1 °F /  -3.8 °C 24.1 °F /  -4.4 °C 29.17 in /  987.7 hPa NW 11.6 mph /  18.7 km/h 25.3 mph /  40.7 km/h 96 % 0.03 in /  0.76 mm
13:24 25.1 °F /  -3.8 °C 24.1 °F /  -4.4 °C 29.17 in /  987.7 hPa North 13.0 mph /  20.9 km/h 21.9 mph /  35.2 km/h 96 % 0.03 in /  0.76 mm
13:25 25.1 °F /  -3.8 °C 24.1 °F /  -4.4 °C 29.17 in /  987.7 hPa NW 11.6 mph /  18.7 km/h 20.7 mph /  33.3 km/h 96 % 0.03 in /  0.76 mm
13:30 25.1 °F /  -3.8 °C 24.1 °F /  -4.4 °C 29.17 in /  987.7 hPa NW 9.9 mph /  15.9 km/h 19.0 mph /  30.6 km/h 96 % 0.03 in /  0.76 mm
13:33 25.1 °F /  -3.8 °C 24.1 °F /  -4.4 °C 29.17 in /  987.7 hPa NNW 15.8 mph /  25.4 km/h 24.2 mph /  38.9 km/h 96 % 0.02 in /  0.51 mm
13:38 25.0 °F /  -3.9 °C 24.0 °F /  -4.4 °C 29.16 in /  987.4 hPa North 9.8 mph /  15.8 km/h 19.6 mph /  31.5 km/h 96 % 0.02 in /  0.51 mm
13:43 24.9 °F /  -3.9 °C 23.9 °F /  -4.5 °C 29.16 in /  987.4 hPa NW 11.0 mph /  17.7 km/h 20.7 mph /  33.3 km/h 96 % 0.02 in /  0.51 mm
13:48 24.9 °F /  -3.9 °C 23.7 °F /  -4.6 °C 29.17 in /  987.7 hPa NNW 11.8 mph /  19 km/h 25.3 mph /  40.7 km/h 95 % 0.02 in /  0.51 mm
13:52 24.9 °F /  -3.9 °C 23.9 °F /  -4.5 °C 29.17 in /  987.7 hPa North 11.1 mph /  17.9 km/h 17.3 mph /  27.8 km/h 96 % 0.01 in /  0.25 mm
14:01 24.7 °F /  -4.1 °C 23.7 °F /  -4.6 °C 29.16 in /  987.4 hPa NW 11.8 mph /  19 km/h 23.0 mph /  37 km/h 96 % 0.01 in /  0.25 mm
14:07 24.6 °F /  -4.1 °C 23.6 °F /  -4.7 °C 29.17 in /  987.7 hPa NNW 11.2 mph /  18 km/h 18.0 mph /  29 km/h 96 % 0.02 in /  0.51 mm
14:12 24.5 °F /  -4.2 °C 23.5 °F /  -4.7 °C 29.16 in /  987.4 hPa NNW 11.7 mph /  18.8 km/h 23.0 mph /  37 km/h 96 % 0.02 in /  0.51 mm
14:15 24.4 °F /  -4.2 °C 23.2 °F /  -4.9 °C 29.17 in /  987.7 hPa WNW 13.8 mph /  22.2 km/h 23.0 mph /  37 km/h 95 % 0.01 in /  0.25 mm
14:18 24.3 °F /  -4.3 °C 23.1 °F /  -4.9 °C 29.17 in /  987.7 hPa NW 9.7 mph /  15.6 km/h 27.6 mph /  44.4 km/h 95 % 0.01 in /  0.25 mm
14:22 24.3 °F /  -4.3 °C 23.1 °F /  -4.9 °C 29.17 in /  987.7 hPa WNW 14.0 mph /  22.5 km/h 26.5 mph /  42.6 km/h 95 % 0.01 in /  0.25 mm
14:27 24.2 °F /  -4.3 °C 23.0 °F /  -5 °C 29.18 in /  988 hPa NNW 12.6 mph /  20.3 km/h 28.8 mph /  46.3 km/h 95 % 0.01 in /  0.25 mm
14:28 24.2 °F /  -4.3 °C 23.0 °F /  -5 °C 29.18 in /  988 hPa North 14.0 mph /  22.5 km/h 26.5 mph /  42.6 km/h 95 % 0.01 in /  0.25 mm
14:29 24.1 °F /  -4.4 °C 22.9 °F /  -5.1 °C 28.93 in /  979.6 hPa North 11.6 mph /  18.7 km/h 26.5 mph /  42.6 km/h 95 % 0.01 in /  0.25 mm
14:33 24.0 °F /  -4.4 °C 22.8 °F /  -5.1 °C 29.18 in /  988 hPa NNW 13.4 mph /  21.6 km/h 24.2 mph /  38.9 km/h 95 % 0.01 in /  0.25 mm
14:36 24.0 °F /  -4.4 °C 22.8 °F /  -5.1 °C 29.18 in /  988 hPa NNW 10.0 mph /  16.1 km/h 30.0 mph /  48.3 km/h 95 % 0.00 in /  0 mm
14:41 24.0 °F /  -4.4 °C 22.8 °F /  -5.1 °C 29.19 in /  988.4 hPa WNW 9.9 mph /  15.9 km/h 21.9 mph /  35.2 km/h 95 % 0.01 in /  0.25 mm
14:43 24.0 °F /  -4.4 °C 22.8 °F /  -5.1 °C 29.18 in /  988 hPa WNW 13.7 mph /  22 km/h 21.0 mph /  33.8 km/h 95 % 0.01 in /  0.25 mm
14:49 24.0 °F /  -4.4 °C 22.8 °F /  -5.1 °C 29.19 in /  988.4 hPa WNW 13.6 mph /  21.9 km/h 21.9 mph /  35.2 km/h 95 % 0.01 in /  0.25 mm
14:54 24.1 °F /  -4.4 °C 22.9 °F /  -5.1 °C 29.19 in /  988.4 hPa NNW 11.6 mph /  18.7 km/h 24.2 mph /  38.9 km/h 95 % 0.01 in /  0.25 mm
14:59 24.1 °F /  -4.4 °C 23.1 °F /  -4.9 °C 29.19 in /  988.4 hPa NW 9.4 mph /  15.1 km/h 20.0 mph /  32.2 km/h 96 % 0.01 in /  0.25 mm
15:04 24.2 °F /  -4.3 °C 23.2 °F /  -4.9 °C 29.21 in /  989.1 hPa NW 8.9 mph /  14.3 km/h 22.0 mph /  35.4 km/h 96 % 0.01 in /  0.25 mm
15:09 24.2 °F /  -4.3 °C 23.2 °F /  -4.9 °C 29.20 in /  988.7 hPa NNW 10.5 mph /  16.9 km/h 31.1 mph /  50 km/h 96 % 0.00 in /  0 mm
15:14 24.1 °F /  -4.4 °C 22.9 °F /  -5.1 °C 29.21 in /  989.1 hPa NNW 10.3 mph /  16.6 km/h 17.0 mph /  27.4 km/h 95 % 0.00 in /  0 mm
15:17 24.1 °F /  -4.4 °C 22.9 °F /  -5.1 °C 29.21 in /  989.1 hPa NNW 13.1 mph /  21.1 km/h 26.5 mph /  42.6 km/h 95 % 0.00 in /  0 mm
15:23 24.0 °F /  -4.4 °C 22.8 °F /  -5.1 °C 29.21 in /  989.1 hPa NNE 11.7 mph /  18.8 km/h 23.0 mph /  37 km/h 95 % 0.00 in /  0 mm
15:25 24.0 °F /  -4.4 °C 22.8 °F /  -5.1 °C 29.21 in /  989.1 hPa NNW 10.7 mph /  17.2 km/h 21.9 mph /  35.2 km/h 95 % 0.00 in /  0 mm
15:30 24.0 °F /  -4.4 °C 22.8 °F /  -5.1 °C 29.22 in /  989.4 hPa NW 12.7 mph /  20.4 km/h 21.9 mph /  35.2 km/h 95 % 0.00 in /  0 mm
15:36 23.9 °F /  -4.5 °C 22.7 °F /  -5.2 °C 29.22 in /  989.4 hPa NNW 8.8 mph /  14.2 km/h 24.0 mph /  38.6 km/h 95 % 0.00 in /  0 mm
15:38 23.9 °F /  -4.5 °C 22.7 °F /  -5.2 °C 29.22 in /  989.4 hPa North 9.1 mph /  14.6 km/h 13.8 mph /  22.2 km/h 95 % 0.00 in /  0 mm
15:43 23.9 °F /  -4.5 °C 22.7 °F /  -5.2 °C 29.22 in /  989.4 hPa NW 12.7 mph /  20.4 km/h 19.6 mph /  31.5 km/h 95 % 0.00 in /  0 mm
15:49 23.9 °F /  -4.5 °C 22.7 °F /  -5.2 °C 29.23 in /  989.7 hPa NW 12.0 mph /  19.3 km/h 24.0 mph /  38.6 km/h 95 % 0.00 in /  0 mm
15:54 23.9 °F /  -4.5 °C 22.7 °F /  -5.2 °C 29.23 in /  989.7 hPa NNW 11.0 mph /  17.7 km/h 19.6 mph /  31.5 km/h 95 % 0.00 in /  0 mm
15:58 23.9 °F /  -4.5 °C 22.7 °F /  -5.2 °C 29.23 in /  989.7 hPa NNW 12.0 mph /  19.3 km/h 21.9 mph /  35.2 km/h 95 % 0.00 in /  0 mm
16:04 24.0 °F /  -4.4 °C 22.8 °F /  -5.1 °C 29.24 in /  990.1 hPa NW 12.8 mph /  20.6 km/h 23.0 mph /  37 km/h 95 % 0.00 in /  0 mm
16:06 24.0 °F /  -4.4 °C 22.8 °F /  -5.1 °C 28.99 in /  981.6 hPa North 11.9 mph /  19.2 km/h 23.0 mph /  37 km/h 95 % 0.00 in /  0 mm
16:16 24.2 °F /  -4.3 °C 23.2 °F /  -4.9 °C 29.25 in /  990.4 hPa NNW 6.9 mph /  11.1 km/h 25.3 mph /  40.7 km/h 96 % 0.00 in /  0 mm
16:19 24.3 °F /  -4.3 °C 23.3 °F /  -4.8 °C 29.00 in /  981.9 hPa WNW 8.2 mph /  13.2 km/h 28.8 mph /  46.3 km/h 96 % 0.00 in /  0 mm
16:25 24.5 °F /  -4.2 °C 23.5 °F /  -4.7 °C 29.25 in /  990.4 hPa NW 11.0 mph /  17.7 km/h 23.0 mph /  37 km/h 96 % 0.00 in /  0 mm
16:27 24.5 °F /  -4.2 °C 23.5 °F /  -4.7 °C 29.25 in /  990.4 hPa NW 10.0 mph /  16.1 km/h 21.9 mph /  35.2 km/h 96 % 0.00 in /  0 mm
16:34 24.7 °F /  -4.1 °C 23.7 °F /  -4.6 °C 29.25 in /  990.4 hPa North 8.1 mph /  13 km/h 18.4 mph /  29.6 km/h 96 % 0.00 in /  0 mm
16:36 24.7 °F /  -4.1 °C 23.7 °F /  -4.6 °C 29.00 in /  981.9 hPa WNW 12.3 mph /  19.8 km/h 21.9 mph /  35.2 km/h 96 % 0.00 in /  0 mm
16:41 24.7 °F /  -4.1 °C 23.7 °F /  -4.6 °C 29.25 in /  990.4 hPa NW 8.1 mph /  13 km/h 20.7 mph /  33.3 km/h 96 % 0.00 in /  0 mm
16:43 24.7 °F /  -4.1 °C 23.5 °F /  -4.7 °C 29.01 in /  982.3 hPa NW 8.8 mph /  14.2 km/h 26.5 mph /  42.6 km/h 95 % 0.00 in /  0 mm
16:44 24.7 °F /  -4.1 °C 23.5 °F /  -4.7 °C 29.01 in /  982.3 hPa NNW 11.7 mph /  18.8 km/h 22.0 mph /  35.4 km/h 95 % 0.00 in /  0 mm
16:46 24.7 °F /  -4.1 °C 23.7 °F /  -4.6 °C 29.26 in /  990.7 hPa NW 13.1 mph /  21.1 km/h 26.0 mph /  41.8 km/h 96 % 0.00 in /  0 mm
16:47 24.7 °F /  -4.1 °C 23.5 °F /  -4.7 °C 29.01 in /  982.3 hPa NW 15.2 mph /  24.5 km/h 26.5 mph /  42.6 km/h 95 % 0.00 in /  0 mm
16:48 24.7 °F /  -4.1 °C 23.5 °F /  -4.7 °C 29.26 in /  990.7 hPa WSW 10.1 mph /  16.3 km/h 20.7 mph /  33.3 km/h 95 % 0.00 in /  0 mm
16:50 24.7 °F /  -4.1 °C 23.5 °F /  -4.7 °C 29.26 in /  990.7 hPa NNW 9.9 mph /  15.9 km/h 17.3 mph /  27.8 km/h 95 % 0.00 in /  0 mm
16:51 24.7 °F /  -4.1 °C 23.5 °F /  -4.7 °C 29.26 in /  990.7 hPa NW 8.1 mph /  13 km/h 18.4 mph /  29.6 km/h 95 % 0.00 in /  0 mm
16:52 24.7 °F /  -4.1 °C 23.5 °F /  -4.7 °C 29.26 in /  990.7 hPa North 12.2 mph /  19.6 km/h 18.4 mph /  29.6 km/h 95 % 0.00 in /  0 mm
16:56 24.7 °F /  -4.1 °C 23.8 °F /  -4.6 °C 29.26 in /  990.7 hPa NW 9.0 mph /  14.5 km/h 20.0 mph /  32.2 km/h 96 % 0.00 in /  0 mm
17:01 24.8 °F /  -4 °C 23.8 °F /  -4.6 °C 29.02 in /  982.6 hPa WSW 15.8 mph /  25.4 km/h 17.3 mph /  27.8 km/h 96 % 0.00 in /  0 mm
17:02 24.9 °F /  -3.9 °C 23.9 °F /  -4.5 °C 29.26 in /  990.7 hPa NW 8.3 mph /  13.4 km/h 15.0 mph /  24.1 km/h 96 % 0.00 in /  0 mm
17:07 25.0 °F /  -3.9 °C 24.0 °F /  -4.4 °C 29.27 in /  991.1 hPa NW 7.3 mph /  11.7 km/h 19.6 mph /  31.5 km/h 96 % 0.00 in /  0 mm
17:08 25.0 °F /  -3.9 °C 24.0 °F /  -4.4 °C 29.27 in /  991.1 hPa NW 8.0 mph /  12.9 km/h 20.0 mph /  32.2 km/h 96 % 0.00 in /  0 mm
17:13 25.1 °F /  -3.8 °C 24.1 °F /  -4.4 °C 29.27 in /  991.1 hPa NNW 10.4 mph /  16.7 km/h 18.4 mph /  29.6 km/h 96 % 0.00 in /  0 mm
17:18 25.1 °F /  -3.8 °C 24.1 °F /  -4.4 °C 29.27 in /  991.1 hPa WNW 8.2 mph /  13.2 km/h 19.6 mph /  31.5 km/h 96 % 0.00 in /  0 mm
17:23 25.1 °F /  -3.8 °C 24.1 °F /  -4.4 °C 29.27 in /  991.1 hPa WNW 11.5 mph /  18.5 km/h 19.6 mph /  31.5 km/h 96 % 0.00 in /  0 mm
17:28 25.1 °F /  -3.8 °C 24.1 °F /  -4.4 °C 29.28 in /  991.4 hPa West 11.9 mph /  19.2 km/h 24.2 mph /  38.9 km/h 96 % 0.00 in /  0 mm
17:29 25.1 °F /  -3.8 °C 24.1 °F /  -4.4 °C 29.28 in /  991.4 hPa West 7.1 mph /  11.4 km/h 24.2 mph /  38.9 km/h 96 % 0.00 in /  0 mm
17:34 25.1 °F /  -3.8 °C 24.1 °F /  -4.4 °C 29.28 in /  991.4 hPa WNW 10.0 mph /  16.1 km/h 23.0 mph /  37 km/h 96 % 0.00 in /  0 mm
17:39 25.1 °F /  -3.8 °C 24.1 °F /  -4.4 °C 29.28 in /  991.4 hPa NW 11.8 mph /  19 km/h 24.2 mph /  38.9 km/h 96 % 0.00 in /  0 mm
17:45 25.1 °F /  -3.8 °C 24.1 °F /  -4.4 °C 29.29 in /  991.8 hPa West 14.5 mph /  23.3 km/h 25.0 mph /  40.2 km/h 96 % 0.00 in /  0 mm
17:50 25.0 °F /  -3.9 °C 24.0 °F /  -4.4 °C 29.29 in /  991.8 hPa West 14.0 mph /  22.5 km/h 21.9 mph /  35.2 km/h 96 % 0.00 in /  0 mm
17:55 25.0 °F /  -3.9 °C 24.0 °F /  -4.4 °C 29.29 in /  991.8 hPa WNW 10.5 mph /  16.9 km/h 26.5 mph /  42.6 km/h 96 % 0.00 in /  0 mm
18:07 24.9 °F /  -3.9 °C 23.9 °F /  -4.5 °C 29.30 in /  992.1 hPa NNW 10.7 mph /  17.2 km/h 19.6 mph /  31.5 km/h 96 % 0.00 in /  0 mm
18:12 24.9 °F /  -3.9 °C 23.7 °F /  -4.6 °C 29.30 in /  992.1 hPa WNW 9.9 mph /  15.9 km/h 20.7 mph /  33.3 km/h 95 % 0.00 in /  0 mm
18:15 24.9 °F /  -3.9 °C 23.7 °F /  -4.6 °C 29.31 in /  992.4 hPa West 9.5 mph /  15.3 km/h 23.0 mph /  37 km/h 95 % 0.00 in /  0 mm
18:20 24.9 °F /  -3.9 °C 23.9 °F /  -4.5 °C 29.31 in /  992.4 hPa WNW 8.8 mph /  14.2 km/h 16.1 mph /  25.9 km/h 96 % 0.00 in /  0 mm
18:22 24.8 °F /  -4 °C 23.6 °F /  -4.7 °C 29.31 in /  992.4 hPa West 11.1 mph /  17.9 km/h 21.9 mph /  35.2 km/h 95 % 0.00 in /  0 mm
18:27 24.8 °F /  -4 °C 23.8 °F /  -4.6 °C 29.31 in /  992.4 hPa WNW 13.0 mph /  20.9 km/h 21.9 mph /  35.2 km/h 96 % 0.00 in /  0 mm
18:28 24.8 °F /  -4 °C 23.8 °F /  -4.6 °C 29.32 in /  992.8 hPa NNW 10.2 mph /  16.4 km/h 21.9 mph /  35.2 km/h 96 % 0.00 in /  0 mm
18:33 24.7 °F /  -4.1 °C 23.5 °F /  -4.7 °C 29.32 in /  992.8 hPa West 8.0 mph /  12.9 km/h 17.3 mph /  27.8 km/h 95 % 0.00 in /  0 mm
18:39 24.6 °F /  -4.1 °C 23.4 °F /  -4.8 °C 29.32 in /  992.8 hPa WNW 9.1 mph /  14.6 km/h 17.3 mph /  27.8 km/h 95 % 0.00 in /  0 mm
18:43 24.6 °F /  -4.1 °C 23.4 °F /  -4.8 °C 29.33 in /  993.1 hPa WSW 8.1 mph /  13 km/h 19.6 mph /  31.5 km/h 95 % 0.00 in /  0 mm
18:48 24.5 °F /  -4.2 °C 23.3 °F /  -4.8 °C 29.33 in /  993.1 hPa West 8.8 mph /  14.2 km/h 21.9 mph /  35.2 km/h 95 % 0.00 in /  0 mm
18:51 24.5 °F /  -4.2 °C 23.3 °F /  -4.8 °C 29.33 in /  993.1 hPa WNW 8.8 mph /  14.2 km/h 17.0 mph /  27.4 km/h 95 % 0.00 in /  0 mm
18:56 24.5 °F /  -4.2 °C 23.3 °F /  -4.8 °C 29.34 in /  993.5 hPa West 13.4 mph /  21.6 km/h 21.9 mph /  35.2 km/h 95 % 0.00 in /  0 mm
19:02 24.4 °F /  -4.2 °C 23.2 °F /  -4.9 °C 29.34 in /  993.5 hPa SW 13.2 mph /  21.2 km/h 23.0 mph /  37 km/h 95 % 0.00 in /  0 mm
19:04 24.4 °F /  -4.2 °C 23.2 °F /  -4.9 °C 29.34 in /  993.5 hPa West 9.4 mph /  15.1 km/h 18.0 mph /  29 km/h 95 % 0.00 in /  0 mm
19:10 24.3 °F /  -4.3 °C 23.1 °F /  -4.9 °C 29.34 in /  993.5 hPa West 8.5 mph /  13.7 km/h 18.4 mph /  29.6 km/h 95 % 0.00 in /  0 mm
19:15 24.3 °F /  -4.3 °C 23.1 °F /  -4.9 °C 29.35 in /  993.8 hPa NW 11.3 mph /  18.2 km/h 20.7 mph /  33.3 km/h 95 % 0.00 in /  0 mm
19:20 24.3 °F /  -4.3 °C 23.1 °F /  -4.9 °C 29.35 in /  993.8 hPa WNW 10.9 mph /  17.5 km/h 21.9 mph /  35.2 km/h 95 % 0.00 in /  0 mm
19:25 24.2 °F /  -4.3 °C 23.0 °F /  -5 °C 29.35 in /  993.8 hPa WSW 10.6 mph /  17.1 km/h 16.1 mph /  25.9 km/h 95 % 0.00 in /  0 mm
19:30 24.2 °F /  -4.3 °C 23.0 °F /  -5 °C 29.36 in /  994.1 hPa NW 12.3 mph /  19.8 km/h 16.1 mph /  25.9 km/h 95 % 0.00 in /  0 mm
19:35 24.2 °F /  -4.3 °C 23.0 °F /  -5 °C 29.37 in /  994.5 hPa NW 11.0 mph /  17.7 km/h 18.4 mph /  29.6 km/h 95 % 0.00 in /  0 mm
19:40 24.2 °F /  -4.3 °C 23.0 °F /  -5 °C 29.36 in /  994.1 hPa West 6.1 mph /  9.8 km/h 12.0 mph /  19.3 km/h 95 % 0.00 in /  0 mm
19:45 24.2 °F /  -4.3 °C 23.0 °F /  -5 °C 29.36 in /  994.1 hPa NW 5.5 mph /  8.9 km/h 13.8 mph /  22.2 km/h 95 % 0.00 in /  0 mm
19:50 24.2 °F /  -4.3 °C 23.0 °F /  -5 °C 29.37 in /  994.5 hPa WSW 12.5 mph /  20.1 km/h 21.9 mph /  35.2 km/h 95 % 0.00 in /  0 mm
19:55 24.2 °F /  -4.3 °C 23.0 °F /  -5 °C 29.38 in /  994.8 hPa WNW 13.2 mph /  21.2 km/h 19.6 mph /  31.5 km/h 95 % 0.00 in /  0 mm
19:57 24.2 °F /  -4.3 °C 23.0 °F /  -5 °C 29.38 in /  994.8 hPa WNW 11.7 mph /  18.8 km/h 17.0 mph /  27.4 km/h 95 % 0.00 in /  0 mm
20:02 24.1 °F /  -4.4 °C 22.9 °F /  -5.1 °C 29.39 in /  995.1 hPa WNW 7.7 mph /  12.4 km/h 18.4 mph /  29.6 km/h 95 % 0.00 in /  0 mm
20:07 24.0 °F /  -4.4 °C 22.8 °F /  -5.1 °C 29.39 in /  995.1 hPa NNW 6.9 mph /  11.1 km/h 17.3 mph /  27.8 km/h 95 % 0.00 in /  0 mm
20:11 24.0 °F /  -4.4 °C 22.8 °F /  -5.1 °C 29.39 in /  995.1 hPa WNW 14.0 mph /  22.5 km/h 23.0 mph /  37 km/h 95 % 0.00 in /  0 mm
20:16 24.0 °F /  -4.4 °C 22.8 °F /  -5.1 °C 29.39 in /  995.1 hPa WNW 15.6 mph /  25.1 km/h 26.5 mph /  42.6 km/h 95 % 0.00 in /  0 mm
20:20 24.0 °F /  -4.4 °C 22.5 °F /  -5.3 °C 29.40 in /  995.5 hPa NW 10.1 mph /  16.3 km/h 19.6 mph /  31.5 km/h 94 % 0.00 in /  0 mm
20:23 23.9 °F /  -4.5 °C 22.4 °F /  -5.3 °C 29.40 in /  995.5 hPa WSW 14.6 mph /  23.5 km/h 19.6 mph /  31.5 km/h 94 % 0.00 in /  0 mm
20:29 23.9 °F /  -4.5 °C 22.4 °F /  -5.3 °C 29.40 in /  995.5 hPa West 9.7 mph /  15.6 km/h 16.1 mph /  25.9 km/h 94 % 0.00 in /  0 mm
20:34 23.8 °F /  -4.6 °C 22.3 °F /  -5.4 °C 29.40 in /  995.5 hPa North 12.8 mph /  20.6 km/h 28.8 mph /  46.3 km/h 94 % 0.00 in /  0 mm
20:35 23.8 °F /  -4.6 °C 22.3 °F /  -5.4 °C 29.41 in /  995.8 hPa SW 11.1 mph /  17.9 km/h 21.0 mph /  33.8 km/h 94 % 0.00 in /  0 mm
20:41 23.7 °F /  -4.6 °C 22.2 °F /  -5.4 °C 29.41 in /  995.8 hPa WNW 14.0 mph /  22.5 km/h 29.0 mph /  46.7 km/h 94 % 0.00 in /  0 mm
20:42 23.7 °F /  -4.6 °C 22.2 °F /  -5.4 °C 29.41 in /  995.8 hPa NW 11.4 mph /  18.3 km/h 16.1 mph /  25.9 km/h 94 % 0.00 in /  0 mm
20:48 23.6 °F /  -4.7 °C 22.1 °F /  -5.5 °C 29.41 in /  995.8 hPa North 9.7 mph /  15.6 km/h 17.3 mph /  27.8 km/h 94 % 0.00 in /  0 mm
20:50 23.6 °F /  -4.7 °C 22.1 °F /  -5.5 °C 29.41 in /  995.8 hPa WNW 7.3 mph /  11.7 km/h 17.3 mph /  27.8 km/h 94 % 0.00 in /  0 mm
20:55 23.6 °F /  -4.7 °C 22.1 °F /  -5.5 °C 29.42 in /  996.2 hPa West 11.5 mph /  18.5 km/h 20.7 mph /  33.3 km/h 94 % 0.00 in /  0 mm
21:01 23.5 °F /  -4.7 °C 22.0 °F /  -5.6 °C 29.42 in /  996.2 hPa NW 9.0 mph /  14.5 km/h 17.3 mph /  27.8 km/h 94 % 0.00 in /  0 mm
21:04 23.6 °F /  -4.7 °C 22.1 °F /  -5.5 °C 29.42 in /  996.2 hPa West 9.9 mph /  15.9 km/h 18.4 mph /  29.6 km/h 94 % 0.00 in /  0 mm
21:10 23.5 °F /  -4.7 °C 22.0 °F /  -5.6 °C 29.42 in /  996.2 hPa West 12.0 mph /  19.3 km/h 20.7 mph /  33.3 km/h 94 % 0.00 in /  0 mm
21:12 23.4 °F /  -4.8 °C 21.9 °F /  -5.6 °C 29.43 in /  996.5 hPa WNW 8.6 mph /  13.8 km/h 14.0 mph /  22.5 km/h 94 % 0.00 in /  0 mm
21:17 23.2 °F /  -4.9 °C 21.5 °F /  -5.8 °C 29.43 in /  996.5 hPa WNW 11.2 mph /  18 km/h 21.0 mph /  33.8 km/h 93 % 0.00 in /  0 mm
21:20 23.1 °F /  -4.9 °C 21.6 °F /  -5.8 °C 29.43 in /  996.5 hPa NW 9.5 mph /  15.3 km/h 19.0 mph /  30.6 km/h 94 % 0.00 in /  0 mm
21:25 22.9 °F /  -5.1 °C 21.2 °F /  -6 °C 29.44 in /  996.8 hPa West 8.3 mph /  13.4 km/h 16.1 mph /  25.9 km/h 93 % 0.00 in /  0 mm
21:28 22.8 °F /  -5.1 °C 21.1 °F /  -6.1 °C 29.44 in /  996.8 hPa WSW 10.4 mph /  16.7 km/h 18.4 mph /  29.6 km/h 93 % 0.00 in /  0 mm
21:33 22.6 °F /  -5.2 °C 20.9 °F /  -6.2 °C 29.45 in /  997.2 hPa WNW 10.3 mph /  16.6 km/h 18.4 mph /  29.6 km/h 93 % 0.00 in /  0 mm
21:38 22.5 °F /  -5.3 °C 20.8 °F /  -6.2 °C 29.45 in /  997.2 hPa WNW 9.0 mph /  14.5 km/h 11.5 mph /  18.5 km/h 93 % 0.00 in /  0 mm
21:39 22.5 °F /  -5.3 °C 20.8 °F /  -6.2 °C 29.45 in /  997.2 hPa WSW 8.5 mph /  13.7 km/h 19.6 mph /  31.5 km/h 93 % 0.00 in /  0 mm
21:44 22.3 °F /  -5.4 °C 20.6 °F /  -6.3 °C 29.45 in /  997.2 hPa West 7.1 mph /  11.4 km/h 11.0 mph /  17.7 km/h 93 % 0.00 in /  0 mm
21:49 22.2 °F /  -5.4 °C 20.5 °F /  -6.4 °C 29.46 in /  997.5 hPa West 9.6 mph /  15.4 km/h 16.0 mph /  25.7 km/h 93 % 0.00 in /  0 mm
21:54 22.0 °F /  -5.6 °C 20.3 °F /  -6.5 °C 29.46 in /  997.5 hPa WSW 12.1 mph /  19.5 km/h 19.6 mph /  31.5 km/h 93 % 0.00 in /  0 mm
21:59 21.8 °F /  -5.7 °C 20.1 °F /  -6.6 °C 29.46 in /  997.5 hPa WNW 6.3 mph /  10.1 km/h 13.8 mph /  22.2 km/h 93 % 0.00 in /  0 mm
22:00 21.9 °F /  -5.6 °C 20.2 °F /  -6.6 °C 29.46 in /  997.5 hPa West 6.1 mph /  9.8 km/h 13.8 mph /  22.2 km/h 93 % 0.00 in /  0 mm
22:05 21.7 °F /  -5.7 °C 20.0 °F /  -6.7 °C 29.46 in /  997.5 hPa WNW 11.0 mph /  17.7 km/h 19.6 mph /  31.5 km/h 93 % 0.00 in /  0 mm
22:07 21.7 °F /  -5.7 °C 20.0 °F /  -6.7 °C 29.46 in /  997.5 hPa WNW 12.9 mph /  20.8 km/h 19.6 mph /  31.5 km/h 93 % 0.00 in /  0 mm
22:12 21.5 °F /  -5.8 °C 19.8 °F /  -6.8 °C 29.46 in /  997.5 hPa SW 10.2 mph /  16.4 km/h 17.3 mph /  27.8 km/h 93 % 0.00 in /  0 mm
22:14 21.5 °F /  -5.8 °C 19.8 °F /  -6.8 °C 29.46 in /  997.5 hPa NNW 12.1 mph /  19.5 km/h 19.6 mph /  31.5 km/h 93 % 0.00 in /  0 mm
22:18 21.4 °F /  -5.9 °C 19.7 °F /  -6.8 °C 29.46 in /  997.5 hPa West 7.2 mph /  11.6 km/h 13.8 mph /  22.2 km/h 93 % 0.00 in /  0 mm
22:23 21.3 °F /  -5.9 °C 19.6 °F /  -6.9 °C 29.46 in /  997.5 hPa NW 8.5 mph /  13.7 km/h 17.0 mph /  27.4 km/h 93 % 0.00 in /  0 mm
22:24 21.3 °F /  -5.9 °C 19.6 °F /  -6.9 °C 29.47 in /  997.9 hPa NW 9.2 mph /  14.8 km/h 19.6 mph /  31.5 km/h 93 % 0.00 in /  0 mm
22:26 21.3 °F /  -5.9 °C 19.6 °F /  -6.9 °C 29.47 in /  997.9 hPa SW 12.2 mph /  19.6 km/h 26.5 mph /  42.6 km/h 93 % 0.00 in /  0 mm
22:31 21.3 °F /  -5.9 °C 19.6 °F /  -6.9 °C 29.47 in /  997.9 hPa WNW 5.1 mph /  8.2 km/h 13.0 mph /  20.9 km/h 93 % 0.00 in /  0 mm
22:33 21.3 °F /  -5.9 °C 19.6 °F /  -6.9 °C 29.47 in /  997.9 hPa WNW 11.8 mph /  19 km/h 18.4 mph /  29.6 km/h 93 % 0.00 in /  0 mm
22:38 21.3 °F /  -5.9 °C 19.6 °F /  -6.9 °C 29.47 in /  997.9 hPa NW 8.4 mph /  13.5 km/h 20.7 mph /  33.3 km/h 93 % 0.00 in /  0 mm
22:41 21.2 °F /  -6 °C 19.5 °F /  -6.9 °C 29.48 in /  998.2 hPa WNW 9.8 mph /  15.8 km/h 17.3 mph /  27.8 km/h 93 % 0.00 in /  0 mm
22:46 21.3 °F /  -5.9 °C 19.6 °F /  -6.9 °C 29.47 in /  997.9 hPa West 9.7 mph /  15.6 km/h 19.0 mph /  30.6 km/h 93 % 0.00 in /  0 mm
22:47 21.2 °F /  -6 °C 19.5 °F /  -6.9 °C 29.48 in /  998.2 hPa WNW 9.3 mph /  15 km/h 19.6 mph /  31.5 km/h 93 % 0.00 in /  0 mm
22:52 21.2 °F /  -6 °C 19.5 °F /  -6.9 °C 29.47 in /  997.9 hPa NW 10.6 mph /  17.1 km/h 16.1 mph /  25.9 km/h 93 % 0.00 in /  0 mm
22:57 21.1 °F /  -6.1 °C 19.4 °F /  -7 °C 29.48 in /  998.2 hPa WNW 7.3 mph /  11.7 km/h 21.9 mph /  35.2 km/h 93 % 0.00 in /  0 mm
23:02 21.0 °F /  -6.1 °C 19.3 °F /  -7.1 °C 29.47 in /  997.9 hPa West 10.3 mph /  16.6 km/h 20.7 mph /  33.3 km/h 93 % 0.00 in /  0 mm
23:05 21.0 °F /  -6.1 °C 19.0 °F /  -7.2 °C 29.48 in /  998.2 hPa WNW 12.2 mph /  19.6 km/h 19.6 mph /  31.5 km/h 92 % 0.00 in /  0 mm
23:10 20.8 °F /  -6.2 °C 18.8 °F /  -7.3 °C 29.48 in /  998.2 hPa WNW 6.2 mph /  10 km/h 12.7 mph /  20.4 km/h 92 % 0.00 in /  0 mm
23:15 20.7 °F /  -6.3 °C 18.7 °F /  -7.4 °C 29.48 in /  998.2 hPa West 7.7 mph /  12.4 km/h 20.7 mph /  33.3 km/h 92 % 0.00 in /  0 mm
23:20 20.6 °F /  -6.3 °C 18.6 °F /  -7.4 °C 29.48 in /  998.2 hPa WNW 11.6 mph /  18.7 km/h 24.2 mph /  38.9 km/h 92 % 0.00 in /  0 mm
23:25 20.4 °F /  -6.4 °C 18.4 °F /  -7.6 °C 29.48 in /  998.2 hPa West 10.0 mph /  16.1 km/h 20.7 mph /  33.3 km/h 92 % 0.00 in /  0 mm
23:27 20.4 °F /  -6.4 °C 18.4 °F /  -7.6 °C 29.48 in /  998.2 hPa West 13.4 mph /  21.6 km/h 24.2 mph /  38.9 km/h 92 % 0.00 in /  0 mm
23:32 20.3 °F /  -6.5 °C 18.3 °F /  -7.6 °C 29.48 in /  998.2 hPa West 10.7 mph /  17.2 km/h 19.6 mph /  31.5 km/h 92 % 0.00 in /  0 mm
23:33 20.3 °F /  -6.5 °C 18.3 °F /  -7.6 °C 29.49 in /  998.5 hPa WNW 12.0 mph /  19.3 km/h 21.9 mph /  35.2 km/h 92 % 0.00 in /  0 mm
23:38 20.2 °F /  -6.6 °C 18.2 °F /  -7.7 °C 29.49 in /  998.5 hPa NW 11.2 mph /  18 km/h 21.9 mph /  35.2 km/h 92 % 0.00 in /  0 mm
23:42 20.1 °F /  -6.6 °C 18.1 °F /  -7.7 °C 29.49 in /  998.5 hPa West 10.2 mph /  16.4 km/h 19.0 mph /  30.6 km/h 92 % 0.00 in /  0 mm
23:47 20.0 °F /  -6.7 °C 18.1 °F /  -7.7 °C 29.49 in /  998.5 hPa NNW 9.9 mph /  15.9 km/h 17.3 mph /  27.8 km/h 92 % 0.00 in /  0 mm
23:52 19.9 °F /  -6.7 °C 18.0 °F /  -7.8 °C 29.49 in /  998.5 hPa West 12.8 mph /  20.6 km/h 21.9 mph /  35.2 km/h 92 % 0.00 in /  0 mm
23:56 19.8 °F /  -6.8 °C 17.9 °F /  -7.8 °C 29.49 in /  998.5 hPa NW 10.9 mph /  17.5 km/h 16.1 mph /  25.9 km/h 92 % 0.00 in /  0 mm
Crab Meadow Weather
Compliments of Weather Underground - 3.5 mb

Script developed by  Jim McMurry - jmcmurry@mwt.net Adapted for the template by  Wim van der Kuil - Leuven-Template.eu

Hurricanes: A large hurricane stirs up more than a million cubic miles of the atmosphere every second. Hurricane winds can kick up 50 foot or higher waves in the open ocean.